Main page
METAR-TAF:

METAR-TAF

Airports :

Djibouti–Ambouli International Airport

Djibouti, Djibouti

latitude: 11-33N, longitude: 043-10E, elevation: 49 m

Current weather observation

The report was made 2 hours and 2 minutes ago, at 14:00 UTC
Wind 7 kt from the East
Temperature 28°C
Humidity 74%
Pressure 1015 hPa
Visibility 10 km or more
no clouds below 1500 m and no cumulonimbus

METAR: HDAM 211400Z 08007KT CAVOK 28/23 Q1015

Time: 19:02 (16:02 UTC)

Forecast

The report was made 5 hours and 2 minutes ago, at 11:00 UTC
Forecast valid from 21 at 12 UTC to 22 at 12 UTC
Wind 10 kt from the East
Visibility 10 km or more
Few clouds at a height of 2300 ft
Becoming
from 21 at 15 UTC to 21 at 21 UTC
Wind 5 kt from variable directions
Clear sky
Becoming
from 22 at 00 UTC to 22 at 06 UTC
Wind kt from the North
Few clouds at a height of 2000 ft

TAF: HDAM 211100Z 2112/2212 08010KT 9999 FEW023 BECMG 2115/2121 VRB05KT SKC BECMG 2200/2206 00000KT FEW020

Weather observations and forecasts of more than 4000 airports (METAR and TAF reports).

The available stations are represented by yellow and red dots on the map.

Hover mouse over dot to see the name of the station.

Then click to see weather observations and forecasts.

To change the map : click on the green buttons with a black cross to zoom in, on the green button with a dash to zoom out, or on the green arrows for adjacent maps.


METAR-TAF: